sensor_id;sensor_type;location;lat;lon;timestamp;temperature;humidity
45319;DHT22;31057;48.498;32.260;2022-10-16T00:00:38;3.60;99.90
45319;DHT22;31057;48.498;32.260;2022-10-16T00:03:41;3.60;99.90
45319;DHT22;31057;48.498;32.260;2022-10-16T00:06:43;3.40;99.90
45319;DHT22;31057;48.498;32.260;2022-10-16T00:09:46;3.40;99.90
45319;DHT22;31057;48.498;32.260;2022-10-16T00:12:48;3.20;99.90
45319;DHT22;31057;48.498;32.260;2022-10-16T00:15:50;3.20;99.90
45319;DHT22;31057;48.498;32.260;2022-10-16T00:18:51;3.20;99.90
45319;DHT22;31057;48.498;32.260;2022-10-16T00:21:53;3.10;99.90
45319;DHT22;31057;48.498;32.260;2022-10-16T00:24:55;3.20;99.90
45319;DHT22;31057;48.498;32.260;2022-10-16T00:27:57;3.10;99.90
45319;DHT22;31057;48.498;32.260;2022-10-16T00:31:06;3.10;99.90
45319;DHT22;31057;48.498;32.260;2022-10-16T00:34:08;3.10;99.90
45319;DHT22;31057;48.498;32.260;2022-10-16T00:37:10;3.20;99.90
45319;DHT22;31057;48.498;32.260;2022-10-16T00:40:12;3.00;99.90
45319;DHT22;31057;48.498;32.260;2022-10-16T00:43:45;3.10;99.90
45319;DHT22;31057;48.498;32.260;2022-10-16T00:46:48;2.90;99.90
45319;DHT22;31057;48.498;32.260;2022-10-16T00:49:51;2.80;99.90
45319;DHT22;31057;48.498;32.260;2022-10-16T00:52:56;2.70;99.90
45319;DHT22;31057;48.498;32.260;2022-10-16T00:55:58;2.70;99.90
45319;DHT22;31057;48.498;32.260;2022-10-16T00:59:04;2.70;99.90
45319;DHT22;31057;48.498;32.260;2022-10-16T01:02:11;2.70;99.90
45319;DHT22;31057;48.498;32.260;2022-10-16T01:05:14;2.70;99.90
45319;DHT22;31057;48.498;32.260;2022-10-16T01:08:22;2.60;99.90
45319;DHT22;31057;48.498;32.260;2022-10-16T01:14:59;2.40;99.90
45319;DHT22;31057;48.498;32.260;2022-10-16T01:21:31;2.30;99.90
45319;DHT22;31057;48.498;32.260;2022-10-16T01:24:40;2.20;99.90
45319;DHT22;31057;48.498;32.260;2022-10-16T01:27:45;2.20;99.90
45319;DHT22;31057;48.498;32.260;2022-10-16T01:30:52;2.20;99.90
45319;DHT22;31057;48.498;32.260;2022-10-16T01:34:02;2.20;99.90
45319;DHT22;31057;48.498;32.260;2022-10-16T01:37:09;2.20;99.90
45319;DHT22;31057;48.498;32.260;2022-10-16T01:40:16;2.20;99.90
45319;DHT22;31057;48.498;32.260;2022-10-16T01:43:25;2.20;99.90
45319;DHT22;31057;48.498;32.260;2022-10-16T01:46:30;2.20;99.90
45319;DHT22;31057;48.498;32.260;2022-10-16T01:49:36;2.10;99.90
45319;DHT22;31057;48.498;32.260;2022-10-16T01:52:41;2.00;99.90
45319;DHT22;31057;48.498;32.260;2022-10-16T01:55:47;1.90;99.90
45319;DHT22;31057;48.498;32.260;2022-10-16T01:58:57;1.80;99.90
45319;DHT22;31057;48.498;32.260;2022-10-16T02:02:03;1.90;99.90
45319;DHT22;31057;48.498;32.260;2022-10-16T02:05:19;1.90;99.90
45319;DHT22;31057;48.498;32.260;2022-10-16T02:08:24;1.90;99.90
45319;DHT22;31057;48.498;32.260;2022-10-16T02:11:27;1.70;99.90
45319;DHT22;31057;48.498;32.260;2022-10-16T02:14:29;1.60;99.90
45319;DHT22;31057;48.498;32.260;2022-10-16T02:17:31;1.50;99.90
45319;DHT22;31057;48.498;32.260;2022-10-16T02:20:40;1.50;99.90
45319;DHT22;31057;48.498;32.260;2022-10-16T02:27:05;1.40;99.90
45319;DHT22;31057;48.498;32.260;2022-10-16T02:30:25;1.40;99.90
45319;DHT22;31057;48.498;32.260;2022-10-16T02:33:30;1.40;99.90
45319;DHT22;31057;48.498;32.260;2022-10-16T02:36:33;1.40;99.90
45319;DHT22;31057;48.498;32.260;2022-10-16T02:39:37;1.30;99.90
45319;DHT22;31057;48.498;32.260;2022-10-16T02:42:40;1.30;99.90
45319;DHT22;31057;48.498;32.260;2022-10-16T02:45:43;1.30;99.90
45319;DHT22;31057;48.498;32.260;2022-10-16T02:48:45;1.30;99.90
45319;DHT22;31057;48.498;32.260;2022-10-16T02:51:46;1.30;99.90
45319;DHT22;31057;48.498;32.260;2022-10-16T02:54:50;1.30;99.90
45319;DHT22;31057;48.498;32.260;2022-10-16T02:57:51;1.30;99.90
45319;DHT22;31057;48.498;32.260;2022-10-16T03:00:55;1.30;99.90
45319;DHT22;31057;48.498;32.260;2022-10-16T03:03:57;1.10;99.90
45319;DHT22;31057;48.498;32.260;2022-10-16T03:06:59;1.20;99.90
45319;DHT22;31057;48.498;32.260;2022-10-16T03:10:00;1.20;99.90
45319;DHT22;31057;48.498;32.260;2022-10-16T03:13:02;1.20;99.90
45319;DHT22;31057;48.498;32.260;2022-10-16T03:16:04;1.20;99.90
45319;DHT22;31057;48.498;32.260;2022-10-16T03:19:06;1.20;99.90
45319;DHT22;31057;48.498;32.260;2022-10-16T03:22:08;1.20;99.90
45319;DHT22;31057;48.498;32.260;2022-10-16T03:25:10;1.10;99.90
45319;DHT22;31057;48.498;32.260;2022-10-16T03:28:12;1.10;99.90
45319;DHT22;31057;48.498;32.260;2022-10-16T03:31:14;1.20;99.90
45319;DHT22;31057;48.498;32.260;2022-10-16T03:34:16;1.10;99.90
45319;DHT22;31057;48.498;32.260;2022-10-16T03:37:18;1.10;99.90
45319;DHT22;31057;48.498;32.260;2022-10-16T03:40:20;1.00;99.90
45319;DHT22;31057;48.498;32.260;2022-10-16T03:43:21;1.00;99.90
45319;DHT22;31057;48.498;32.260;2022-10-16T03:46:23;0.90;99.90
45319;DHT22;31057;48.498;32.260;2022-10-16T03:49:25;0.90;99.90
45319;DHT22;31057;48.498;32.260;2022-10-16T03:52:27;0.90;99.90
45319;DHT22;31057;48.498;32.260;2022-10-16T03:55:29;0.80;99.90
45319;DHT22;31057;48.498;32.260;2022-10-16T03:58:31;0.70;99.90
45319;DHT22;31057;48.498;32.260;2022-10-16T04:01:34;0.70;99.90
45319;DHT22;31057;48.498;32.260;2022-10-16T04:04:36;0.70;99.90
45319;DHT22;31057;48.498;32.260;2022-10-16T04:07:38;0.70;99.90
45319;DHT22;31057;48.498;32.260;2022-10-16T04:10:42;0.70;99.90
45319;DHT22;31057;48.498;32.260;2022-10-16T04:13:44;0.70;99.90
45319;DHT22;31057;48.498;32.260;2022-10-16T04:16:46;0.70;99.90
45319;DHT22;31057;48.498;32.260;2022-10-16T04:19:48;0.70;99.90
45319;DHT22;31057;48.498;32.260;2022-10-16T04:22:50;0.80;99.90
45319;DHT22;31057;48.498;32.260;2022-10-16T04:25:52;0.80;99.90
45319;DHT22;31057;48.498;32.260;2022-10-16T04:28:54;0.80;99.90
45319;DHT22;31057;48.498;32.260;2022-10-16T04:31:56;0.90;99.90
45319;DHT22;31057;48.498;32.260;2022-10-16T04:34:58;0.80;99.90
45319;DHT22;31057;48.498;32.260;2022-10-16T04:37:59;0.90;99.90
45319;DHT22;31057;48.498;32.260;2022-10-16T04:41:01;0.90;99.90
45319;DHT22;31057;48.498;32.260;2022-10-16T04:44:03;1.00;99.90
45319;DHT22;31057;48.498;32.260;2022-10-16T04:47:05;1.00;99.90
45319;DHT22;31057;48.498;32.260;2022-10-16T04:50:07;1.00;99.90
45319;DHT22;31057;48.498;32.260;2022-10-16T04:53:09;1.00;99.90
45319;DHT22;31057;48.498;32.260;2022-10-16T04:56:11;1.10;99.90
45319;DHT22;31057;48.498;32.260;2022-10-16T04:59:18;1.30;99.90
45319;DHT22;31057;48.498;32.260;2022-10-16T05:02:20;1.40;99.90
45319;DHT22;31057;48.498;32.260;2022-10-16T05:05:22;1.40;99.90
45319;DHT22;31057;48.498;32.260;2022-10-16T05:08:24;1.50;99.90
45319;DHT22;31057;48.498;32.260;2022-10-16T05:11:26;1.50;99.90
45319;DHT22;31057;48.498;32.260;2022-10-16T05:14:28;1.70;99.90
45319;DHT22;31057;48.498;32.260;2022-10-16T05:17:30;1.70;99.90
45319;DHT22;31057;48.498;32.260;2022-10-16T05:20:32;1.70;99.90
45319;DHT22;31057;48.498;32.260;2022-10-16T05:23:34;1.70;99.90
45319;DHT22;31057;48.498;32.260;2022-10-16T05:26:35;1.80;99.90
45319;DHT22;31057;48.498;32.260;2022-10-16T05:29:37;1.90;99.90
45319;DHT22;31057;48.498;32.260;2022-10-16T05:32:39;2.10;99.90
45319;DHT22;31057;48.498;32.260;2022-10-16T05:35:41;2.30;99.90
45319;DHT22;31057;48.498;32.260;2022-10-16T05:38:44;2.50;99.90
45319;DHT22;31057;48.498;32.260;2022-10-16T05:41:46;2.60;99.90
45319;DHT22;31057;48.498;32.260;2022-10-16T05:44:48;2.80;99.90
45319;DHT22;31057;48.498;32.260;2022-10-16T05:47:49;3.00;99.90
45319;DHT22;31057;48.498;32.260;2022-10-16T05:51:03;3.10;99.90
45319;DHT22;31057;48.498;32.260;2022-10-16T05:54:05;3.30;99.90
45319;DHT22;31057;48.498;32.260;2022-10-16T05:57:07;3.50;99.90
45319;DHT22;31057;48.498;32.260;2022-10-16T06:00:10;3.70;99.90
45319;DHT22;31057;48.498;32.260;2022-10-16T06:03:12;3.80;99.90
45319;DHT22;31057;48.498;32.260;2022-10-16T06:06:22;3.90;99.90
45319;DHT22;31057;48.498;32.260;2022-10-16T06:09:25;3.90;99.90
45319;DHT22;31057;48.498;32.260;2022-10-16T06:12:27;4.10;99.90
45319;DHT22;31057;48.498;32.260;2022-10-16T06:15:29;4.30;99.90
45319;DHT22;31057;48.498;32.260;2022-10-16T06:18:31;4.60;99.90
45319;DHT22;31057;48.498;32.260;2022-10-16T06:21:33;4.80;99.90
45319;DHT22;31057;48.498;32.260;2022-10-16T06:24:35;5.00;99.90
45319;DHT22;31057;48.498;32.260;2022-10-16T06:27:39;5.20;99.90
45319;DHT22;31057;48.498;32.260;2022-10-16T06:30:42;5.40;99.90
45319;DHT22;31057;48.498;32.260;2022-10-16T06:33:50;5.60;99.90
45319;DHT22;31057;48.498;32.260;2022-10-16T06:36:53;5.80;99.90
45319;DHT22;31057;48.498;32.260;2022-10-16T06:39:56;6.10;99.90
45319;DHT22;31057;48.498;32.260;2022-10-16T06:42:58;6.30;99.90
45319;DHT22;31057;48.498;32.260;2022-10-16T06:46:01;6.50;99.90
45319;DHT22;31057;48.498;32.260;2022-10-16T06:49:03;6.70;99.90
45319;DHT22;31057;48.498;32.260;2022-10-16T06:52:05;6.90;99.90
45319;DHT22;31057;48.498;32.260;2022-10-16T06:55:07;7.00;99.90
45319;DHT22;31057;48.498;32.260;2022-10-16T06:58:09;7.10;99.90
45319;DHT22;31057;48.498;32.260;2022-10-16T07:01:12;7.30;99.90
45319;DHT22;31057;48.498;32.260;2022-10-16T07:04:14;7.40;99.90
45319;DHT22;31057;48.498;32.260;2022-10-16T07:07:16;7.60;99.90
45319;DHT22;31057;48.498;32.260;2022-10-16T07:10:18;7.90;99.90
45319;DHT22;31057;48.498;32.260;2022-10-16T07:13:20;7.90;99.90
45319;DHT22;31057;48.498;32.260;2022-10-16T07:16:24;8.00;99.90
45319;DHT22;31057;48.498;32.260;2022-10-16T07:19:27;8.10;99.90
45319;DHT22;31057;48.498;32.260;2022-10-16T07:22:34;8.20;99.90
45319;DHT22;31057;48.498;32.260;2022-10-16T07:25:36;8.30;99.90
45319;DHT22;31057;48.498;32.260;2022-10-16T07:28:38;8.40;99.90
45319;DHT22;31057;48.498;32.260;2022-10-16T07:31:42;8.60;99.90
45319;DHT22;31057;48.498;32.260;2022-10-16T07:34:44;8.70;99.90
45319;DHT22;31057;48.498;32.260;2022-10-16T07:37:47;8.70;99.90
45319;DHT22;31057;48.498;32.260;2022-10-16T07:40:57;8.80;99.90
45319;DHT22;31057;48.498;32.260;2022-10-16T07:43:59;9.00;99.90
45319;DHT22;31057;48.498;32.260;2022-10-16T07:47:01;9.10;99.90
45319;DHT22;31057;48.498;32.260;2022-10-16T07:50:04;9.30;99.90
45319;DHT22;31057;48.498;32.260;2022-10-16T07:53:06;9.10;99.90
45319;DHT22;31057;48.498;32.260;2022-10-16T07:56:09;9.30;99.90
45319;DHT22;31057;48.498;32.260;2022-10-16T07:59:11;9.50;99.90
45319;DHT22;31057;48.498;32.260;2022-10-16T08:02:13;9.60;99.90
45319;DHT22;31057;48.498;32.260;2022-10-16T08:05:15;9.70;99.90
45319;DHT22;31057;48.498;32.260;2022-10-16T08:08:18;9.90;99.90
45319;DHT22;31057;48.498;32.260;2022-10-16T08:11:20;9.70;99.90
45319;DHT22;31057;48.498;32.260;2022-10-16T08:14:22;9.80;99.90
45319;DHT22;31057;48.498;32.260;2022-10-16T08:17:24;10.00;99.90
45319;DHT22;31057;48.498;32.260;2022-10-16T08:20:27;9.80;99.90
45319;DHT22;31057;48.498;32.260;2022-10-16T08:23:29;10.20;99.90
45319;DHT22;31057;48.498;32.260;2022-10-16T08:26:31;10.20;99.90
45319;DHT22;31057;48.498;32.260;2022-10-16T08:29:33;10.20;99.90
45319;DHT22;31057;48.498;32.260;2022-10-16T08:32:34;9.70;99.90
45319;DHT22;31057;48.498;32.260;2022-10-16T08:35:36;9.60;99.90
45319;DHT22;31057;48.498;32.260;2022-10-16T08:38:38;10.10;99.90
45319;DHT22;31057;48.498;32.260;2022-10-16T08:45:08;9.50;99.90
45319;DHT22;31057;48.498;32.260;2022-10-16T08:51:36;9.80;99.90
45319;DHT22;31057;48.498;32.260;2022-10-16T08:54:47;9.60;99.90
45319;DHT22;31057;48.498;32.260;2022-10-16T08:57:52;9.80;99.90
45319;DHT22;31057;48.498;32.260;2022-10-16T09:00:59;10.00;99.90
45319;DHT22;31057;48.498;32.260;2022-10-16T09:07:59;10.20;99.90
45319;DHT22;31057;48.498;32.260;2022-10-16T09:24:18;10.20;99.90
45319;DHT22;31057;48.498;32.260;2022-10-16T09:27:20;10.50;99.90
45319;DHT22;31057;48.498;32.260;2022-10-16T09:30:22;10.60;99.90
45319;DHT22;31057;48.498;32.260;2022-10-16T09:33:34;10.60;99.90
45319;DHT22;31057;48.498;32.260;2022-10-16T09:36:43;10.50;99.90
45319;DHT22;31057;48.498;32.260;2022-10-16T09:39:48;10.70;99.90
45319;DHT22;31057;48.498;32.260;2022-10-16T09:42:56;10.80;99.90
45319;DHT22;31057;48.498;32.260;2022-10-16T09:46:25;10.70;99.90
45319;DHT22;31057;48.498;32.260;2022-10-16T09:49:26;11.10;99.90
45319;DHT22;31057;48.498;32.260;2022-10-16T09:52:28;10.90;99.90
45319;DHT22;31057;48.498;32.260;2022-10-16T09:55:31;10.90;99.90
45319;DHT22;31057;48.498;32.260;2022-10-16T09:58:33;10.90;99.90
45319;DHT22;31057;48.498;32.260;2022-10-16T10:01:42;11.00;99.30
45319;DHT22;31057;48.498;32.260;2022-10-16T10:04:50;10.80;98.90
45319;DHT22;31057;48.498;32.260;2022-10-16T10:08:01;10.90;99.50
45319;DHT22;31057;48.498;32.260;2022-10-16T10:11:07;11.30;99.70
45319;DHT22;31057;48.498;32.260;2022-10-16T10:17:25;11.60;98.80
45319;DHT22;31057;48.498;32.260;2022-10-16T10:20:32;11.40;99.00
45319;DHT22;31057;48.498;32.260;2022-10-16T10:23:35;11.10;98.90
45319;DHT22;31057;48.498;32.260;2022-10-16T10:26:38;11.70;99.50
45319;DHT22;31057;48.498;32.260;2022-10-16T10:37:00;11.50;99.20
45319;DHT22;31057;48.498;32.260;2022-10-16T10:40:11;11.30;98.40
45319;DHT22;31057;48.498;32.260;2022-10-16T10:46:56;11.50;98.80
45319;DHT22;31057;48.498;32.260;2022-10-16T10:51:00;11.20;98.30
45319;DHT22;31057;48.498;32.260;2022-10-16T11:07:17;11.80;97.90
45319;DHT22;31057;48.498;32.260;2022-10-16T11:10:25;11.70;97.80
45319;DHT22;31057;48.498;32.260;2022-10-16T11:13:39;12.00;98.20
45319;DHT22;31057;48.498;32.260;2022-10-16T11:16:51;12.00;97.20
45319;DHT22;31057;48.498;32.260;2022-10-16T11:20:04;12.10;97.50
45319;DHT22;31057;48.498;32.260;2022-10-16T11:26:33;11.90;96.40
45319;DHT22;31057;48.498;32.260;2022-10-16T11:29:44;12.10;96.60
45319;DHT22;31057;48.498;32.260;2022-10-16T11:36:44;12.30;95.80
45319;DHT22;31057;48.498;32.260;2022-10-16T11:39:50;12.20;95.90
45319;DHT22;31057;48.498;32.260;2022-10-16T11:43:13;12.10;95.70
45319;DHT22;31057;48.498;32.260;2022-10-16T11:46:20;12.30;96.30
45319;DHT22;31057;48.498;32.260;2022-10-16T11:49:25;12.40;95.90
45319;DHT22;31057;48.498;32.260;2022-10-16T11:52:38;12.30;96.40
45319;DHT22;31057;48.498;32.260;2022-10-16T11:55:43;12.10;95.80
45319;DHT22;31057;48.498;32.260;2022-10-16T12:02:28;12.10;95.70
45319;DHT22;31057;48.498;32.260;2022-10-16T12:08:53;12.40;95.70
45319;DHT22;31057;48.498;32.260;2022-10-16T12:11:55;12.40;95.50
45319;DHT22;31057;48.498;32.260;2022-10-16T12:15:26;12.20;94.90
45319;DHT22;31057;48.498;32.260;2022-10-16T12:18:48;12.20;95.20
45319;DHT22;31057;48.498;32.260;2022-10-16T12:21:52;12.40;95.40
45319;DHT22;31057;48.498;32.260;2022-10-16T12:24:54;12.30;95.40
45319;DHT22;31057;48.498;32.260;2022-10-16T12:28:17;12.40;95.40
45319;DHT22;31057;48.498;32.260;2022-10-16T12:31:21;12.40;95.20
45319;DHT22;31057;48.498;32.260;2022-10-16T12:34:32;12.50;95.30
45319;DHT22;31057;48.498;32.260;2022-10-16T12:37:37;12.50;94.80
45319;DHT22;31057;48.498;32.260;2022-10-16T12:40:39;12.50;95.10
45319;DHT22;31057;48.498;32.260;2022-10-16T12:43:47;12.50;95.60
45319;DHT22;31057;48.498;32.260;2022-10-16T12:46:49;12.40;95.80
45319;DHT22;31057;48.498;32.260;2022-10-16T12:49:54;12.40;95.30
45319;DHT22;31057;48.498;32.260;2022-10-16T12:52:56;12.30;95.40
45319;DHT22;31057;48.498;32.260;2022-10-16T13:02:54;12.40;94.80
45319;DHT22;31057;48.498;32.260;2022-10-16T13:09:56;12.30;95.30
45319;DHT22;31057;48.498;32.260;2022-10-16T13:23:15;12.30;95.20
45319;DHT22;31057;48.498;32.260;2022-10-16T13:29:45;12.30;95.00
45319;DHT22;31057;48.498;32.260;2022-10-16T13:33:06;12.30;95.20
45319;DHT22;31057;48.498;32.260;2022-10-16T13:36:42;12.30;95.00
45319;DHT22;31057;48.498;32.260;2022-10-16T13:39:44;12.20;94.20
45319;DHT22;31057;48.498;32.260;2022-10-16T13:42:46;12.10;94.30
45319;DHT22;31057;48.498;32.260;2022-10-16T13:45:58;12.10;94.50
45319;DHT22;31057;48.498;32.260;2022-10-16T13:49:10;12.20;94.20
45319;DHT22;31057;48.498;32.260;2022-10-16T13:52:20;12.00;95.00
45319;DHT22;31057;48.498;32.260;2022-10-16T13:55:22;12.00;94.80
45319;DHT22;31057;48.498;32.260;2022-10-16T13:58:24;11.90;94.70
45319;DHT22;31057;48.498;32.260;2022-10-16T14:01:29;11.90;94.50
45319;DHT22;31057;48.498;32.260;2022-10-16T14:04:33;11.90;94.50
45319;DHT22;31057;48.498;32.260;2022-10-16T14:07:39;11.90;94.60
45319;DHT22;31057;48.498;32.260;2022-10-16T14:10:42;11.70;95.00
45319;DHT22;31057;48.498;32.260;2022-10-16T14:13:45;11.90;94.80
45319;DHT22;31057;48.498;32.260;2022-10-16T14:16:47;13.10;93.80
45319;DHT22;31057;48.498;32.260;2022-10-16T14:19:51;13.80;92.80
45319;DHT22;31057;48.498;32.260;2022-10-16T14:23:04;14.40;91.70
45319;DHT22;31057;48.498;32.260;2022-10-16T14:29:17;14.20;92.70
45319;DHT22;31057;48.498;32.260;2022-10-16T14:32:26;14.00;92.00
45319;DHT22;31057;48.498;32.260;2022-10-16T14:35:37;13.90;91.90
45319;DHT22;31057;48.498;32.260;2022-10-16T14:38:43;13.70;92.20
45319;DHT22;31057;48.498;32.260;2022-10-16T14:41:50;13.30;92.70
45319;DHT22;31057;48.498;32.260;2022-10-16T14:44:53;13.10;93.00
45319;DHT22;31057;48.498;32.260;2022-10-16T14:47:58;12.30;93.90
45319;DHT22;31057;48.498;32.260;2022-10-16T14:51:00;11.30;95.30
45319;DHT22;31057;48.498;32.260;2022-10-16T14:54:02;10.90;96.10
45319;DHT22;31057;48.498;32.260;2022-10-16T14:57:04;10.80;96.40
45319;DHT22;31057;48.498;32.260;2022-10-16T15:03:17;10.00;98.20
45319;DHT22;31057;48.498;32.260;2022-10-16T15:06:19;9.90;98.40
45319;DHT22;31057;48.498;32.260;2022-10-16T15:09:22;9.70;99.60
45319;DHT22;31057;48.498;32.260;2022-10-16T15:12:23;9.50;99.50
45319;DHT22;31057;48.498;32.260;2022-10-16T15:18:35;9.60;99.60
45319;DHT22;31057;48.498;32.260;2022-10-16T15:21:37;9.60;99.50
45319;DHT22;31057;48.498;32.260;2022-10-16T15:24:39;9.40;99.90
45319;DHT22;31057;48.498;32.260;2022-10-16T15:27:41;9.40;99.90
45319;DHT22;31057;48.498;32.260;2022-10-16T15:30:43;9.40;99.90
45319;DHT22;31057;48.498;32.260;2022-10-16T15:33:52;9.20;99.90
45319;DHT22;31057;48.498;32.260;2022-10-16T15:36:57;9.30;99.90
45319;DHT22;31057;48.498;32.260;2022-10-16T15:40:01;9.20;99.90
45319;DHT22;31057;48.498;32.260;2022-10-16T15:43:02;9.00;99.90
45319;DHT22;31057;48.498;32.260;2022-10-16T15:46:08;8.90;99.90
45319;DHT22;31057;48.498;32.260;2022-10-16T15:49:11;8.90;99.90
45319;DHT22;31057;48.498;32.260;2022-10-16T15:52:13;8.80;99.90
45319;DHT22;31057;48.498;32.260;2022-10-16T15:55:15;8.80;99.90
45319;DHT22;31057;48.498;32.260;2022-10-16T15:58:17;8.80;99.90
45319;DHT22;31057;48.498;32.260;2022-10-16T16:01:19;8.70;99.90
45319;DHT22;31057;48.498;32.260;2022-10-16T16:04:21;8.60;99.90
45319;DHT22;31057;48.498;32.260;2022-10-16T16:07:43;8.40;99.90
45319;DHT22;31057;48.498;32.260;2022-10-16T16:10:45;8.60;99.90
45319;DHT22;31057;48.498;32.260;2022-10-16T16:13:47;8.50;99.90
45319;DHT22;31057;48.498;32.260;2022-10-16T16:16:49;8.50;99.90
45319;DHT22;31057;48.498;32.260;2022-10-16T16:19:51;8.50;99.90
45319;DHT22;31057;48.498;32.260;2022-10-16T16:22:53;8.40;99.90
45319;DHT22;31057;48.498;32.260;2022-10-16T16:26:15;8.50;99.90
45319;DHT22;31057;48.498;32.260;2022-10-16T16:29:17;8.50;99.90
45319;DHT22;31057;48.498;32.260;2022-10-16T16:32:19;8.50;99.90
45319;DHT22;31057;48.498;32.260;2022-10-16T16:35:21;8.50;99.90
45319;DHT22;31057;48.498;32.260;2022-10-16T16:38:23;8.60;99.90
45319;DHT22;31057;48.498;32.260;2022-10-16T16:41:27;8.50;99.90
45319;DHT22;31057;48.498;32.260;2022-10-16T16:44:29;8.40;99.90
45319;DHT22;31057;48.498;32.260;2022-10-16T16:47:31;8.30;99.90
45319;DHT22;31057;48.498;32.260;2022-10-16T16:50:37;8.10;99.90
45319;DHT22;31057;48.498;32.260;2022-10-16T16:53:39;8.20;99.90
45319;DHT22;31057;48.498;32.260;2022-10-16T16:56:41;8.20;99.90
45319;DHT22;31057;48.498;32.260;2022-10-16T16:59:46;7.90;99.90
45319;DHT22;31057;48.498;32.260;2022-10-16T17:02:49;7.60;99.90
45319;DHT22;31057;48.498;32.260;2022-10-16T17:05:59;7.50;99.90
45319;DHT22;31057;48.498;32.260;2022-10-16T17:09:03;7.60;99.90
45319;DHT22;31057;48.498;32.260;2022-10-16T17:12:05;7.80;99.90
45319;DHT22;31057;48.498;32.260;2022-10-16T17:15:07;7.70;99.90
45319;DHT22;31057;48.498;32.260;2022-10-16T17:18:09;7.50;99.90
45319;DHT22;31057;48.498;32.260;2022-10-16T17:21:11;7.10;99.90
45319;DHT22;31057;48.498;32.260;2022-10-16T17:24:14;6.90;99.90
45319;DHT22;31057;48.498;32.260;2022-10-16T17:27:16;6.90;99.90
45319;DHT22;31057;48.498;32.260;2022-10-16T17:30:18;6.80;99.90
45319;DHT22;31057;48.498;32.260;2022-10-16T17:33:20;7.00;99.90
45319;DHT22;31057;48.498;32.260;2022-10-16T17:36:22;7.20;99.90
45319;DHT22;31057;48.498;32.260;2022-10-16T17:39:24;7.20;99.90
45319;DHT22;31057;48.498;32.260;2022-10-16T17:42:26;7.30;99.90
45319;DHT22;31057;48.498;32.260;2022-10-16T17:45:29;7.30;99.90
45319;DHT22;31057;48.498;32.260;2022-10-16T17:48:31;7.30;99.90
45319;DHT22;31057;48.498;32.260;2022-10-16T17:51:33;7.20;99.90
45319;DHT22;31057;48.498;32.260;2022-10-16T17:54:35;7.20;99.90
45319;DHT22;31057;48.498;32.260;2022-10-16T17:57:37;7.00;99.90
45319;DHT22;31057;48.498;32.260;2022-10-16T18:00:39;6.90;99.90
45319;DHT22;31057;48.498;32.260;2022-10-16T18:03:41;6.90;99.90
45319;DHT22;31057;48.498;32.260;2022-10-16T18:06:43;6.80;99.90
45319;DHT22;31057;48.498;32.260;2022-10-16T18:09:46;6.90;99.90
45319;DHT22;31057;48.498;32.260;2022-10-16T18:13:08;7.00;99.90
45319;DHT22;31057;48.498;32.260;2022-10-16T18:16:12;6.90;99.90
45319;DHT22;31057;48.498;32.260;2022-10-16T18:19:14;6.60;99.90
45319;DHT22;31057;48.498;32.260;2022-10-16T18:22:16;6.50;99.90
45319;DHT22;31057;48.498;32.260;2022-10-16T18:25:18;6.40;99.90
45319;DHT22;31057;48.498;32.260;2022-10-16T18:28:20;6.20;99.90
45319;DHT22;31057;48.498;32.260;2022-10-16T18:31:23;6.10;99.90
45319;DHT22;31057;48.498;32.260;2022-10-16T18:34:27;6.10;99.90
45319;DHT22;31057;48.498;32.260;2022-10-16T18:37:29;6.10;99.90
45319;DHT22;31057;48.498;32.260;2022-10-16T18:40:31;6.10;99.90
45319;DHT22;31057;48.498;32.260;2022-10-16T18:43:37;6.00;99.90
45319;DHT22;31057;48.498;32.260;2022-10-16T18:46:39;5.90;99.90
45319;DHT22;31057;48.498;32.260;2022-10-16T18:49:41;5.70;99.90
45319;DHT22;31057;48.498;32.260;2022-10-16T18:52:48;5.70;99.90
45319;DHT22;31057;48.498;32.260;2022-10-16T18:55:51;5.60;99.90
45319;DHT22;31057;48.498;32.260;2022-10-16T18:58:53;5.50;99.90
45319;DHT22;31057;48.498;32.260;2022-10-16T19:01:55;5.40;99.90
45319;DHT22;31057;48.498;32.260;2022-10-16T19:04:58;5.20;99.90
45319;DHT22;31057;48.498;32.260;2022-10-16T19:08:05;5.30;99.90
45319;DHT22;31057;48.498;32.260;2022-10-16T19:11:14;5.30;99.90
45319;DHT22;31057;48.498;32.260;2022-10-16T19:14:17;5.20;99.90
45319;DHT22;31057;48.498;32.260;2022-10-16T19:17:18;5.20;99.90
45319;DHT22;31057;48.498;32.260;2022-10-16T19:20:20;5.20;99.90
45319;DHT22;31057;48.498;32.260;2022-10-16T19:23:22;5.20;99.90
45319;DHT22;31057;48.498;32.260;2022-10-16T19:26:26;5.20;99.90
45319;DHT22;31057;48.498;32.260;2022-10-16T19:29:29;5.20;99.90
45319;DHT22;31057;48.498;32.260;2022-10-16T19:32:31;5.10;99.90
45319;DHT22;31057;48.498;32.260;2022-10-16T19:35:33;5.10;99.90
45319;DHT22;31057;48.498;32.260;2022-10-16T19:38:36;5.10;99.90
45319;DHT22;31057;48.498;32.260;2022-10-16T19:41:38;5.10;99.90
45319;DHT22;31057;48.498;32.260;2022-10-16T19:44:40;4.90;99.90
45319;DHT22;31057;48.498;32.260;2022-10-16T19:47:41;5.00;99.90
45319;DHT22;31057;48.498;32.260;2022-10-16T19:50:46;4.80;99.90
45319;DHT22;31057;48.498;32.260;2022-10-16T19:53:53;4.80;99.90
45319;DHT22;31057;48.498;32.260;2022-10-16T19:56:55;4.70;99.90
45319;DHT22;31057;48.498;32.260;2022-10-16T19:59:59;4.70;99.90
45319;DHT22;31057;48.498;32.260;2022-10-16T20:03:01;4.70;99.90
45319;DHT22;31057;48.498;32.260;2022-10-16T20:06:04;4.50;99.90
45319;DHT22;31057;48.498;32.260;2022-10-16T20:09:07;4.60;99.90
45319;DHT22;31057;48.498;32.260;2022-10-16T20:12:10;4.50;99.90
45319;DHT22;31057;48.498;32.260;2022-10-16T20:15:12;4.40;99.90
45319;DHT22;31057;48.498;32.260;2022-10-16T20:18:14;4.40;99.90
45319;DHT22;31057;48.498;32.260;2022-10-16T20:21:20;4.10;99.90
45319;DHT22;31057;48.498;32.260;2022-10-16T20:24:22;4.00;99.90
45319;DHT22;31057;48.498;32.260;2022-10-16T20:27:24;4.00;99.90
45319;DHT22;31057;48.498;32.260;2022-10-16T20:30:27;3.90;99.90
45319;DHT22;31057;48.498;32.260;2022-10-16T20:33:29;3.80;99.90
45319;DHT22;31057;48.498;32.260;2022-10-16T20:36:31;3.70;99.90
45319;DHT22;31057;48.498;32.260;2022-10-16T20:39:34;3.60;99.90
45319;DHT22;31057;48.498;32.260;2022-10-16T20:42:36;3.50;99.90
45319;DHT22;31057;48.498;32.260;2022-10-16T20:45:38;3.50;99.90
45319;DHT22;31057;48.498;32.260;2022-10-16T20:48:41;3.50;99.90
45319;DHT22;31057;48.498;32.260;2022-10-16T20:51:47;3.50;99.90
45319;DHT22;31057;48.498;32.260;2022-10-16T20:54:50;3.50;99.90
45319;DHT22;31057;48.498;32.260;2022-10-16T20:57:53;3.50;99.90
45319;DHT22;31057;48.498;32.260;2022-10-16T21:00:55;3.50;99.90
45319;DHT22;31057;48.498;32.260;2022-10-16T21:04:06;3.60;99.90
45319;DHT22;31057;48.498;32.260;2022-10-16T21:07:09;3.50;99.90
45319;DHT22;31057;48.498;32.260;2022-10-16T21:10:11;3.60;99.90